Time;durP1;ratioP1;P1;durP2;ratioP2;P2;SDS_P1;SDS_P2;PMS_P1;PMS_P2;Temp;Humidity;BMP_temperature;BMP_pressure;BME280_temperature;BME280_humidity;BME280_pressure;Samples;Min_cycle;Max_cycle;Signal;HPM_P1;HPM_P2
2021/06/27 00:00:12;;;;;;;7.97;4.33;;;;;;;20.00;81.64;98997.35;1696114;84;21024;-68
2021/06/27 00:02:39;;;;;;;8.20;4.20;;;;;;;19.90;81.74;98994.52;1695839;83;21056;-68
2021/06/27 00:05:08;;;;;;;7.85;4.03;;;;;;;19.83;81.86;98987.41;1662105;86;21107;-68
2021/06/27 00:07:34;;;;;;;12.25;4.37;;;;;;;19.77;81.89;98979.94;1661789;86;21067;-68
2021/06/27 00:10:01;;;;;;;9.43;3.85;;;;;;;19.73;81.92;98977.64;1661981;86;21384;-68
2021/06/27 00:12:28;;;;;;;8.20;4.58;;;;;;;19.68;81.84;98957.20;1661805;85;21082;-68
2021/06/27 00:14:55;;;;;;;7.60;4.17;;;;;;;19.64;81.84;98953.53;1662046;86;21035;-68
2021/06/27 00:17:21;;;;;;;8.68;4.50;;;;;;;19.63;81.78;98954.67;1661973;86;21122;-67
2021/06/27 00:19:48;;;;;;;10.23;4.10;;;;;;;19.63;81.83;98955.25;1661857;86;21066;-68
2021/06/27 00:22:16;;;;;;;6.17;3.83;;;;;;;19.55;81.82;98953.45;1661788;86;21848;-68
2021/06/27 00:24:44;;;;;;;10.45;4.28;;;;;;;19.54;81.84;98949.88;1661714;86;21059;-68
2021/06/27 00:27:10;;;;;;;12.45;4.60;;;;;;;19.59;81.82;98952.38;1661075;86;21176;-67
2021/06/27 00:29:38;;;;;;;10.75;4.40;;;;;;;19.61;81.71;98954.23;1655404;86;21098;-68
2021/06/27 00:32:05;;;;;;;12.60;5.15;;;;;;;19.60;81.65;98952.62;1655664;85;21570;-69
2021/06/27 00:37:10;;;;;;;9.23;4.85;;;;;;;19.63;81.74;98953.87;1792207;79;22816;-62
2021/06/27 00:39:37;;;;;;;5.62;4.65;;;;;;;19.54;81.84;98946.31;1752925;82;21083;-61
2021/06/27 00:42:05;;;;;;;7.70;4.70;;;;;;;19.56;81.77;98953.66;1752838;82;21047;-61
2021/06/27 00:44:32;;;;;;;8.55;5.10;;;;;;;19.55;81.52;98948.73;1699659;82;20960;-61
2021/06/27 00:46:58;;;;;;;6.90;5.08;;;;;;;19.51;81.49;98942.31;1723658;82;21521;-62
2021/06/27 00:49:25;;;;;;;8.95;4.90;;;;;;;19.50;81.58;98955.88;1753498;82;20975;-62
2021/06/27 00:51:52;;;;;;;8.58;4.90;;;;;;;19.51;81.55;98964.96;1753154;82;21098;-62
2021/06/27 00:54:19;;;;;;;8.03;5.00;;;;;;;19.52;81.62;98965.97;1733562;82;20971;-63
2021/06/27 00:56:46;;;;;;;8.93;4.62;;;;;;;19.52;81.63;98976.23;1723173;83;21095;-62
2021/06/27 00:59:13;;;;;;;11.45;4.90;;;;;;;19.56;81.77;98975.74;1723101;83;21049;-62
2021/06/27 01:01:39;;;;;;;9.63;5.30;;;;;;;19.55;81.95;98981.05;1679016;85;21134;-60
2021/06/27 01:04:06;;;;;;;12.47;4.80;;;;;;;19.45;82.06;98976.02;1695843;84;21063;-60
2021/06/27 01:06:33;;;;;;;8.38;4.72;;;;;;;19.35;82.41;98978.06;1679022;84;21122;-60
2021/06/27 01:09:01;;;;;;;8.73;4.25;;;;;;;19.32;82.66;98976.58;1678570;85;21027;-61
2021/06/27 01:11:27;;;;;;;7.97;5.28;;;;;;;19.31;82.58;98975.77;1649172;85;21545;-60
2021/06/27 01:13:54;;;;;;;9.65;5.10;;;;;;;19.24;82.50;98978.31;1712741;84;21048;-59
2021/06/27 01:16:20;;;;;;;12.60;5.22;;;;;;;19.19;82.59;98981.33;1707013;84;21495;-60
2021/06/27 01:18:53;;;;;;;10.45;5.03;;;;;;;19.20;82.63;98984.28;1706911;84;21062;-60
2021/06/27 01:21:21;;;;;;;9.55;4.60;;;;;;;19.21;82.55;98987.86;1703706;84;21031;-60
2021/06/27 01:23:47;;;;;;;7.97;4.67;;;;;;;19.16;82.39;98984.78;1676986;85;20971;-60
2021/06/27 01:26:13;;;;;;;10.28;4.78;;;;;;;19.10;82.40;98983.38;1684044;84;21105;-60
2021/06/27 01:28:40;;;;;;;10.38;4.97;;;;;;;19.06;82.53;98976.16;1683961;85;21094;-60
2021/06/27 01:31:06;;;;;;;10.48;4.70;;;;;;;19.02;82.55;98960.07;1662805;85;21129;-60
2021/06/27 01:33:32;;;;;;;7.28;4.90;;;;;;;18.98;82.66;98957.77;1684279;85;21590;-60
2021/06/27 01:35:59;;;;;;;8.33;5.50;;;;;;;18.99;82.71;98969.05;1676640;84;21118;-60
2021/06/27 01:38:25;;;;;;;8.38;4.70;;;;;;;19.00;82.63;98976.95;1673944;86;21086;-59
2021/06/27 01:40:53;;;;;;;8.45;4.97;;;;;;;19.00;82.55;98975.58;1686542;84;21058;-60
2021/06/27 01:43:21;;;;;;;7.22;4.97;;;;;;;19.02;82.48;98980.76;1702096;84;21102;-60
2021/06/27 01:45:51;;;;;;;11.75;5.30;;;;;;;19.01;82.47;98989.60;1702256;84;21051;-60
2021/06/27 01:48:17;;;;;;;9.65;5.70;;;;;;;19.00;82.47;98994.87;1701824;84;21058;-60
2021/06/27 01:50:47;;;;;;;9.20;4.78;;;;;;;18.99;82.46;98989.73;1643625;86;21067;-60
2021/06/27 01:53:16;;;;;;;11.85;5.35;;;;;;;18.99;82.54;98998.00;1643592;86;21039;-62
2021/06/27 01:55:44;;;;;;;10.35;6.00;;;;;;;18.97;82.59;98998.34;1611257;87;21457;-62
2021/06/27 01:58:10;;;;;;;7.25;5.40;;;;;;;18.94;82.77;99005.11;1673585;86;21090;-62
2021/06/27 02:00:37;;;;;;;8.00;5.30;;;;;;;18.93;82.61;98995.22;1693069;84;21026;-63
2021/06/27 02:03:04;;;;;;;10.10;5.42;;;;;;;18.92;82.51;99001.31;1701557;84;21640;-63
2021/06/27 02:05:31;;;;;;;9.95;5.65;;;;;;;18.89;82.58;99001.43;1701462;84;21047;-62
2021/06/27 02:07:58;;;;;;;8.48;5.47;;;;;;;18.92;82.59;98999.93;1701659;84;21071;-63
2021/06/27 02:10:27;;;;;;;7.75;5.33;;;;;;;18.95;82.48;99011.67;1699670;84;21651;-63
2021/06/27 02:12:55;;;;;;;8.08;5.60;;;;;;;18.95;82.53;99006.73;1701640;84;21616;-62
2021/06/27 02:15:22;;;;;;;7.62;5.58;;;;;;;18.97;82.51;99013.50;1701679;84;21043;-63
2021/06/27 02:17:56;;;;;;;9.80;5.70;;;;;;;18.96;82.45;99009.13;1701597;84;21103;-63
2021/06/27 02:20:27;;;;;;;9.28;5.08;;;;;;;18.95;82.50;99013.05;1674820;84;21071;-63
2021/06/27 02:22:54;;;;;;;9.25;5.78;;;;;;;18.94;82.69;99016.95;1640976;87;21610;-63
2021/06/27 02:25:21;;;;;;;7.37;5.78;;;;;;;18.91;82.67;99017.65;1638309;87;21054;-62
2021/06/27 02:27:47;;;;;;;10.30;6.33;;;;;;;18.92;82.76;99016.47;1673427;86;21083;-62
2021/06/27 02:30:15;;;;;;;11.50;6.40;;;;;;;18.99;82.80;99029.72;1638983;87;21050;-63
2021/06/27 02:32:41;;;;;;;10.28;6.05;;;;;;;19.04;82.72;99027.52;1662373;86;21038;-62
2021/06/27 02:35:09;;;;;;;9.10;6.25;;;;;;;19.07;82.60;99026.83;1636739;86;21569;-63
2021/06/27 02:37:36;;;;;;;7.65;5.60;;;;;;;19.08;82.48;99026.27;1674283;84;21578;-62
2021/06/27 02:40:05;;;;;;;10.00;5.85;;;;;;;19.10;82.46;99022.57;1678233;85;21051;-63
2021/06/27 02:42:31;;;;;;;13.05;5.97;;;;;;;19.07;82.29;99031.54;1723109;83;21059;-62
2021/06/27 02:44:58;;;;;;;8.63;6.10;;;;;;;19.00;82.32;99035.45;1686176;85;21534;-63
2021/06/27 02:47:24;;;;;;;11.25;6.25;;;;;;;18.99;82.49;99044.29;1723108;83;21099;-63
2021/06/27 02:49:51;;;;;;;9.80;6.15;;;;;;;19.04;82.53;99051.54;1749232;82;20978;-64
2021/06/27 02:52:17;;;;;;;10.13;5.33;;;;;;;19.10;82.57;99050.97;1753184;82;21593;-63
2021/06/27 02:54:43;;;;;;;8.20;6.30;;;;;;;19.13;82.48;99048.11;1753098;82;21060;-63
2021/06/27 02:57:10;;;;;;;10.48;5.80;;;;;;;19.12;82.30;99056.16;1743478;82;21066;-64
2021/06/27 02:59:37;;;;;;;7.40;5.62;;;;;;;19.09;82.30;99060.41;1686395;85;21059;-63
2021/06/27 03:02:04;;;;;;;8.60;5.92;;;;;;;19.08;82.34;99046.95;1723484;83;21082;-63
2021/06/27 03:04:30;;;;;;;9.93;6.28;;;;;;;19.07;82.33;99054.41;1723544;83;20991;-61
2021/06/27 03:06:58;;;;;;;9.98;6.28;;;;;;;19.02;82.54;99042.25;1725258;82;21023;-60
2021/06/27 03:09:25;;;;;;;13.48;7.17;;;;;;;19.00;82.69;99044.53;1728828;82;21010;-60
2021/06/27 03:11:52;;;;;;;7.33;6.37;;;;;;;19.00;82.81;99051.99;1723352;82;21617;-61
2021/06/27 03:14:19;;;;;;;11.28;7.15;;;;;;;19.02;82.95;99053.85;1723304;83;21007;-60
2021/06/27 03:16:46;;;;;;;9.08;6.92;;;;;;;19.05;82.96;99051.78;1698527;83;21354;-63
2021/06/27 03:19:15;;;;;;;11.57;7.08;;;;;;;19.05;82.93;99053.16;1723173;83;21506;-63
2021/06/27 03:21:42;;;;;;;8.85;6.72;;;;;;;19.08;83.11;99051.90;1723012;83;21043;-62
2021/06/27 03:24:09;;;;;;;10.75;7.05;;;;;;;19.15;83.05;99055.46;1723272;83;21035;-62
2021/06/27 03:26:35;;;;;;;10.65;7.08;;;;;;;19.21;82.96;99057.64;1730820;82;21059;-62
2021/06/27 03:29:02;;;;;;;9.98;7.00;;;;;;;19.21;82.89;99049.94;1753418;82;21069;-62
2021/06/27 03:31:29;;;;;;;8.83;6.92;;;;;;;19.22;82.91;99048.22;1753036;82;21477;-62
2021/06/27 03:33:55;;;;;;;11.85;7.60;;;;;;;19.24;82.91;99050.05;1753233;82;21062;-60
2021/06/27 03:36:23;;;;;;;9.63;7.58;;;;;;;19.27;82.86;99047.20;1726086;82;21625;-61
2021/06/27 03:41:22;;;;;;;9.30;7.15;;;;;;;19.28;82.95;99048.21;1709768;83;21067;-59
2021/06/27 03:43:48;;;;;;;10.05;7.58;;;;;;;19.33;83.01;99049.94;1709854;84;21534;-60
2021/06/27 03:46:15;;;;;;;10.82;7.40;;;;;;;19.34;83.00;99048.20;1723377;82;21051;-60
2021/06/27 03:48:41;;;;;;;10.13;7.42;;;;;;;19.38;83.07;99042.80;1739211;82;20964;-60
2021/06/27 03:51:08;;;;;;;8.93;7.12;;;;;;;19.46;83.21;99048.80;1739018;82;21065;-60
2021/06/27 03:53:35;;;;;;;7.97;7.22;;;;;;;19.57;83.14;99058.80;1738961;82;21557;-60
2021/06/27 03:56:01;;;;;;;10.20;7.67;;;;;;;19.56;82.79;99045.56;1710987;82;21047;-59
2021/06/27 03:58:28;;;;;;;8.38;7.30;;;;;;;19.52;82.76;99042.48;1709688;84;21049;-59
2021/06/27 04:00:54;;;;;;;10.80;7.40;;;;;;;19.53;82.78;99044.08;1709943;84;21043;-59
2021/06/27 04:03:21;;;;;;;8.35;6.62;;;;;;;19.58;82.92;99039.70;1663773;86;21066;-59
2021/06/27 04:05:48;;;;;;;9.20;7.33;;;;;;;19.67;82.85;99039.80;1710570;82;21412;-60
2021/06/27 04:08:15;;;;;;;9.13;7.28;;;;;;;19.73;82.70;99032.09;1690167;82;21043;-59
2021/06/27 04:10:41;;;;;;;9.58;7.05;;;;;;;19.77;82.65;99032.98;1642907;86;21556;-59
2021/06/27 04:13:09;;;;;;;10.68;7.70;;;;;;;19.82;82.58;99025.27;1738271;82;21510;-59
2021/06/27 04:15:37;;;;;;;12.03;6.92;;;;;;;19.94;82.68;99031.91;1739269;82;21051;-59
2021/06/27 04:18:03;;;;;;;9.73;6.92;;;;;;;20.08;82.65;99030.94;1738895;82;21095;-60
2021/06/27 04:20:29;;;;;;;8.93;7.28;;;;;;;20.17;82.20;99028.25;1739215;82;21027;-60
2021/06/27 04:22:56;;;;;;;10.55;7.45;;;;;;;20.24;82.19;99027.64;1738764;82;21078;-60
2021/06/27 04:25:22;;;;;;;10.98;6.60;;;;;;;20.33;81.82;99024.19;1715470;82;21518;-60
2021/06/27 04:27:48;;;;;;;10.30;6.72;;;;;;;20.38;81.36;99028.06;1663769;86;21055;-59
2021/06/27 04:30:16;;;;;;;8.83;6.30;;;;;;;20.41;81.05;99026.54;1709923;84;21517;-60
2021/06/27 04:32:42;;;;;;;7.95;6.53;;;;;;;20.41;80.89;99024.59;1710136;82;21047;-59
2021/06/27 04:35:09;;;;;;;8.08;6.67;;;;;;;20.40;80.86;99024.95;1713610;82;20992;-60
2021/06/27 04:37:36;;;;;;;8.98;6.85;;;;;;;20.41;80.94;99032.06;1718410;82;21087;-60
2021/06/27 04:40:05;;;;;;;9.18;6.25;;;;;;;20.53;80.91;99033.40;1739012;82;21039;-61
2021/06/27 04:42:31;;;;;;;7.45;6.62;;;;;;;20.61;80.57;99027.72;1738926;82;21095;-60
2021/06/27 04:44:59;;;;;;;9.78;6.47;;;;;;;20.71;80.90;99039.63;1721184;82;20992;-62
2021/06/27 04:47:26;;;;;;;10.95;6.65;;;;;;;20.87;80.27;99032.70;1709665;83;21589;-62
2021/06/27 04:49:52;;;;;;;8.68;6.45;;;;;;;20.94;79.49;99041.80;1663995;86;21086;-63
2021/06/27 04:52:19;;;;;;;10.20;6.95;;;;;;;21.01;79.48;99039.98;1709721;84;21680;-63
2021/06/27 04:54:45;;;;;;;10.15;6.05;;;;;;;21.05;79.25;99045.61;1715456;82;21008;-63
2021/06/27 04:57:12;;;;;;;7.15;6.20;;;;;;;21.14;79.22;99044.31;1663830;86;21570;-63
2021/06/27 04:59:38;;;;;;;9.05;6.60;;;;;;;21.39;78.60;99048.26;1709460;84;21110;-63
2021/06/27 05:02:05;;;;;;;7.12;5.75;;;;;;;21.58;77.77;99046.91;1709691;84;21496;-63
2021/06/27 05:04:31;;;;;;;6.78;5.87;;;;;;;21.76;76.93;99047.53;1710648;82;20999;-63
2021/06/27 05:06:57;;;;;;;7.75;5.90;;;;;;;21.96;75.69;99056.72;1663835;86;21047;-61
2021/06/27 05:09:24;;;;;;;7.45;5.30;;;;;;;22.18;75.37;99058.75;1709902;84;20987;-62
2021/06/27 05:11:52;;;;;;;7.05;5.60;;;;;;;22.43;74.48;99057.86;1709655;83;21554;-61
2021/06/27 05:14:18;;;;;;;8.00;5.87;;;;;;;22.65;73.68;99066.02;1661890;86;21078;-61
2021/06/27 05:16:45;;;;;;;7.35;4.83;;;;;;;22.89;73.42;99069.05;1709494;84;21126;-62
2021/06/27 05:19:11;;;;;;;7.17;4.17;;;;;;;23.16;72.13;99060.44;1663715;86;21111;-62
2021/06/27 05:21:38;;;;;;;6.28;4.35;;;;;;;23.43;70.55;99065.45;1709431;84;21115;-63
2021/06/27 05:24:05;;;;;;;10.28;4.45;;;;;;;23.64;69.43;99066.35;1662379;86;21023;-64
2021/06/27 05:26:32;;;;;;;6.20;4.62;;;;;;;23.84;68.59;99064.27;1689846;84;21553;-63
2021/06/27 05:28:59;;;;;;;8.65;5.33;;;;;;;24.09;68.19;99063.41;1664121;86;21063;-60
2021/06/27 05:31:25;;;;;;;5.53;3.75;;;;;;;24.38;66.49;99069.35;1709684;84;21045;-61
2021/06/27 05:33:52;;;;;;;6.75;4.22;;;;;;;24.61;64.94;99071.42;1710560;82;21032;-61
2021/06/27 05:36:20;;;;;;;7.35;4.50;;;;;;;24.73;63.25;99079.48;1665025;84;21059;-62
2021/06/27 05:38:46;;;;;;;7.30;4.10;;;;;;;24.73;63.40;99084.47;1671196;86;21069;-60
2021/06/27 05:41:13;;;;;;;7.03;4.00;;;;;;;24.82;62.80;99093.92;1717583;83;21051;-60
2021/06/27 05:43:40;;;;;;;7.50;3.90;;;;;;;24.99;62.46;99094.72;1729284;82;21048;-63
2021/06/27 05:46:06;;;;;;;6.22;4.00;;;;;;;25.06;62.29;99098.16;1728127;82;20979;-61
2021/06/27 05:48:32;;;;;;;5.92;3.75;;;;;;;25.11;61.97;99100.02;1741327;82;21553;-62
2021/06/27 05:50:59;;;;;;;6.67;3.90;;;;;;;25.35;62.22;99097.82;1746669;82;21034;-61
2021/06/27 05:53:25;;;;;;;6.17;4.40;;;;;;;25.60;61.69;99089.09;1745811;82;21063;-61
2021/06/27 05:56:08;;;;;;;7.45;4.10;;;;;;;25.84;60.59;99085.67;1718110;82;21071;-61
2021/06/27 05:58:20;;;;;;;6.42;3.52;;;;;;;25.96;59.39;99085.95;1742914;82;21110;-61
2021/06/27 06:00:47;;;;;;;9.18;4.00;;;;;;;25.93;58.68;99084.75;1734247;82;21062;-61
2021/06/27 06:03:13;;;;;;;6.20;3.70;;;;;;;25.86;58.80;99089.48;1683310;85;21079;-62
2021/06/27 06:05:40;;;;;;;5.53;3.75;;;;;;;25.77;58.68;99086.22;1671640;86;21031;-62
2021/06/27 06:08:08;;;;;;;4.70;3.60;;;;;;;25.61;59.13;99085.13;1717636;83;21046;-62
2021/06/27 06:10:35;;;;;;;6.35;3.30;;;;;;;25.39;58.93;99086.92;1721937;82;21011;-63
2021/06/27 06:13:03;;;;;;;6.03;4.12;;;;;;;25.22;59.17;99082.78;1718993;82;21698;-62
2021/06/27 06:15:29;;;;;;;6.70;3.72;;;;;;;25.16;60.12;99077.95;1683354;85;21098;-62
2021/06/27 06:17:56;;;;;;;7.15;3.65;;;;;;;25.21;60.43;99076.22;1642504;86;21569;-59
2021/06/27 06:20:23;;;;;;;7.10;3.85;;;;;;;25.34;60.23;99069.75;1707613;82;21042;-61
2021/06/27 06:22:49;;;;;;;6.40;4.10;;;;;;;25.45;60.32;99066.45;1746598;82;21063;-60
2021/06/27 06:25:15;;;;;;;5.97;3.70;;;;;;;25.47;61.23;99061.31;1747507;82;21490;-60
2021/06/27 06:27:42;;;;;;;7.72;4.10;;;;;;;25.51;60.88;99057.38;1747303;82;21122;-62
2021/06/27 06:30:12;;;;;;;7.85;3.62;;;;;;;25.64;59.79;99055.09;1747145;82;21067;-62
2021/06/27 06:32:38;;;;;;;5.12;3.58;;;;;;;25.69;59.28;99057.49;1718467;82;21051;-61
2021/06/27 06:35:06;;;;;;;5.95;4.17;;;;;;;25.72;59.55;99053.34;1747456;82;21461;-63
2021/06/27 06:37:32;;;;;;;6.33;3.90;;;;;;;25.75;60.01;99061.53;1724566;81;21070;-61
2021/06/27 06:39:59;;;;;;;6.87;4.03;;;;;;;25.77;59.94;99063.33;1733371;81;21093;-60
2021/06/27 06:42:25;;;;;;;6.70;3.77;;;;;;;25.66;60.23;99068.83;1755198;81;21050;-60
2021/06/27 06:44:52;;;;;;;5.62;3.60;;;;;;;25.73;60.98;99063.89;1760236;81;21061;-62
2021/06/27 06:47:18;;;;;;;8.80;3.90;;;;;;;25.82;60.26;99066.34;1761045;81;21050;-62
2021/06/27 06:49:44;;;;;;;5.03;3.95;;;;;;;25.82;60.32;99054.61;1760822;81;21019;-63
2021/06/27 06:52:11;;;;;;;4.90;3.27;;;;;;;25.75;60.39;99060.14;1758750;81;21147;-63
2021/06/27 06:54:37;;;;;;;6.58;3.80;;;;;;;25.70;60.26;99062.69;1761148;81;20991;-63
2021/06/27 06:57:04;;;;;;;8.43;3.80;;;;;;;25.68;59.81;99061.49;1760788;81;21090;-61
2021/06/27 06:59:32;;;;;;;9.58;4.00;;;;;;;25.51;59.65;99059.36;1760940;81;21027;-60
2021/06/27 07:01:59;;;;;;;6.40;3.83;;;;;;;25.38;60.87;99059.44;1753946;81;21049;-61
2021/06/27 07:04:25;;;;;;;7.37;3.75;;;;;;;25.41;61.03;99065.03;1696119;84;21022;-62
2021/06/27 07:06:53;;;;;;;5.53;3.95;;;;;;;25.45;61.22;99060.88;1663451;85;21118;-59
2021/06/27 07:09:20;;;;;;;7.05;4.10;;;;;;;25.51;61.31;99060.75;1667479;85;21025;-62
2021/06/27 07:11:47;;;;;;;6.17;4.00;;;;;;;25.56;61.26;99070.16;1678220;85;21066;-63
2021/06/27 07:14:13;;;;;;;6.50;4.87;;;;;;;25.52;61.00;99067.34;1696095;84;21034;-62
2021/06/27 07:16:41;;;;;;;8.03;5.72;;;;;;;25.46;62.06;99068.87;1662687;86;21092;-61
2021/06/27 07:19:07;;;;;;;8.75;4.72;;;;;;;25.40;62.88;99064.05;1684290;84;20991;-62
2021/06/27 07:21:34;;;;;;;8.00;5.67;;;;;;;25.51;63.34;99069.11;1695993;84;21098;-61
2021/06/27 07:24:00;;;;;;;8.45;5.83;;;;;;;25.54;62.95;99066.34;1662578;86;21459;-61
2021/06/27 07:26:27;;;;;;;8.35;5.65;;;;;;;25.55;63.16;99064.36;1682704;84;21026;-61
2021/06/27 07:28:53;;;;;;;7.42;6.25;;;;;;;25.48;62.88;99063.70;1695264;84;21118;-61
2021/06/27 07:31:19;;;;;;;9.15;5.65;;;;;;;25.32;62.96;99059.01;1662783;86;21056;-62
2021/06/27 07:33:45;;;;;;;7.62;5.50;;;;;;;25.12;64.09;99055.64;1677850;85;21062;-62
2021/06/27 07:36:13;;;;;;;8.15;6.12;;;;;;;25.15;64.88;99047.91;1693888;84;21172;-59
2021/06/27 07:38:40;;;;;;;8.60;5.78;;;;;;;25.24;64.65;99047.00;1639846;86;21097;-59
2021/06/27 07:41:07;;;;;;;7.95;5.87;;;;;;;25.22;64.63;99043.79;1710004;84;21031;-62
2021/06/27 07:43:35;;;;;;;7.10;6.00;;;;;;;25.10;64.53;99044.69;1709579;84;21103;-62
2021/06/27 07:46:02;;;;;;;8.53;5.42;;;;;;;25.00;65.02;99038.44;1716858;82;21031;-61
2021/06/27 07:48:28;;;;;;;9.68;5.30;;;;;;;25.19;65.45;99034.02;1734376;82;21067;-63
2021/06/27 07:50:55;;;;;;;7.53;5.28;;;;;;;25.35;64.65;99031.77;1664095;86;21939;-61
2021/06/27 07:53:21;;;;;;;7.62;5.87;;;;;;;25.38;64.78;99032.37;1709757;84;21087;-62
2021/06/27 07:55:49;;;;;;;8.90;6.25;;;;;;;25.44;64.17;99034.20;1644010;86;21087;-60
2021/06/27 07:58:16;;;;;;;6.67;5.42;;;;;;;25.48;64.54;99030.84;1711605;82;21087;-62
2021/06/27 08:00:42;;;;;;;7.40;5.53;;;;;;;25.62;64.28;99034.56;1661934;86;21004;-63
2021/06/27 08:03:09;;;;;;;7.65;5.10;;;;;;;25.65;63.03;99030.19;1716872;82;21044;-63
2021/06/27 08:05:37;;;;;;;8.98;5.37;;;;;;;25.55;63.62;99028.95;1719126;82;21023;-63
2021/06/27 08:08:04;;;;;;;7.08;5.12;;;;;;;25.56;63.45;99023.58;1709573;83;21047;-63
2021/06/27 08:10:31;;;;;;;7.42;5.45;;;;;;;25.64;63.92;99023.04;1664028;86;21000;-62
2021/06/27 08:12:57;;;;;;;7.55;5.30;;;;;;;25.78;63.69;99027.30;1709828;84;21063;-62
2021/06/27 08:15:23;;;;;;;7.75;5.20;;;;;;;26.03;63.68;99030.22;1716081;82;21455;-62
2021/06/27 08:17:51;;;;;;;7.28;4.97;;;;;;;26.38;62.55;99024.00;1663398;86;21067;-60
2021/06/27 08:20:20;;;;;;;6.55;4.60;;;;;;;26.65;61.39;99026.05;1710157;84;21381;-62
2021/06/27 08:22:46;;;;;;;8.45;4.53;;;;;;;26.86;60.12;99025.91;1709809;83;21078;-60
2021/06/27 08:25:13;;;;;;;7.12;4.45;;;;;;;26.97;59.48;99024.73;1710425;82;20987;-61
2021/06/27 08:27:39;;;;;;;5.00;3.98;;;;;;;27.06;58.49;99023.75;1620842;86;21080;-61
2021/06/27 08:30:09;;;;;;;7.37;4.00;;;;;;;27.12;58.26;99024.95;1710065;84;21039;-63
2021/06/27 08:32:42;;;;;;;5.58;3.67;;;;;;;27.23;56.66;99020.75;1709570;83;21063;-59
2021/06/27 08:35:07;;;;;;;5.28;4.03;;;;;;;27.31;56.32;99004.19;1650915;86;21042;-61
2021/06/27 08:37:34;;;;;;;5.55;3.60;;;;;;;27.40;56.27;99010.75;1712221;83;21070;-60
2021/06/27 08:40:00;;;;;;;7.55;3.75;;;;;;;27.46;56.48;99009.16;1723041;83;21053;-62
2021/06/27 08:42:28;;;;;;;7.40;4.28;;;;;;;27.57;55.41;99016.94;1725499;82;21039;-62
2021/06/27 08:44:54;;;;;;;7.58;4.12;;;;;;;27.45;54.88;99008.39;1751817;82;21023;-62
2021/06/27 08:47:21;;;;;;;5.47;3.80;;;;;;;27.35;55.08;99006.98;1752539;82;21470;-63
2021/06/27 08:49:48;;;;;;;4.53;3.40;;;;;;;27.27;55.43;99002.59;1753131;82;21087;-61
2021/06/27 08:52:19;;;;;;;5.85;3.37;;;;;;;27.20;55.39;99000.59;1753332;82;21038;-63
2021/06/27 08:54:48;;;;;;;5.15;3.87;;;;;;;27.27;55.68;99001.19;1738380;82;21489;-64
2021/06/27 08:57:15;;;;;;;4.42;3.50;;;;;;;27.44;55.79;99001.76;1723293;83;21600;-60
2021/06/27 08:59:42;;;;;;;4.15;3.35;;;;;;;27.61;54.90;99005.14;1686383;85;21039;-62
2021/06/27 09:02:09;;;;;;;5.55;3.50;;;;;;;27.64;54.95;99006.53;1716793;82;21039;-62
2021/06/27 09:04:41;;;;;;;4.90;3.20;;;;;;;27.63;54.72;99005.56;1752845;82;21006;-62
2021/06/27 09:07:32;;;;;;;4.92;3.72;;;;;;;27.81;53.84;99001.31;1753361;82;21114;-63
2021/06/27 09:10:18;;;;;;;6.97;3.50;;;;;;;27.97;52.68;98996.85;1742804;82;20990;-62
2021/06/27 09:12:58;;;;;;;6.90;3.95;;;;;;;27.94;55.38;98994.07;1656334;85;21075;-63
2021/06/27 09:15:48;;;;;;;4.55;3.58;;;;;;;28.11;54.06;98990.42;1722651;83;21493;-61
2021/06/27 09:18:22;;;;;;;4.42;3.30;;;;;;;28.13;54.18;98995.80;1723568;83;21588;-63
2021/06/27 09:20:55;;;;;;;8.78;4.10;;;;;;;28.16;54.39;98998.41;1730011;82;20951;-63
2021/06/27 09:23:42;;;;;;;4.62;3.30;;;;;;;28.16;53.38;98996.38;1750613;82;21601;-63
2021/06/27 09:26:08;;;;;;;6.12;4.00;;;;;;;28.12;53.77;98998.43;1753164;82;21051;-63
2021/06/27 09:28:46;;;;;;;4.95;3.50;;;;;;;28.07;54.13;98994.64;1751140;82;21102;-63
2021/06/27 09:31:35;;;;;;;6.40;3.72;;;;;;;28.10;54.21;99002.22;1753378;82;21487;-63
2021/06/27 09:34:03;;;;;;;6.85;4.10;;;;;;;27.83;54.31;99000.30;1753427;82;21078;-62
2021/06/27 09:36:32;;;;;;;6.28;4.08;;;;;;;27.41;55.41;98998.38;1753198;82;21620;-62
2021/06/27 09:39:07;;;;;;;6.58;3.80;;;;;;;27.25;56.60;99007.16;1720204;82;21071;-62
2021/06/27 09:41:34;;;;;;;4.70;4.10;;;;;;;27.24;55.92;99008.98;1694607;83;21039;-62
2021/06/27 09:44:04;;;;;;;5.40;3.85;;;;;;;27.16;56.86;99014.57;1719800;83;21077;-61
2021/06/27 09:46:41;;;;;;;6.50;4.60;;;;;;;27.14;57.37;99013.35;1721848;82;21636;-63
2021/06/27 09:49:15;;;;;;;6.28;4.33;;;;;;;27.18;57.27;99007.97;1720032;83;21023;-62
2021/06/27 09:51:50;;;;;;;6.60;4.00;;;;;;;27.25;57.92;99005.77;1671166;85;21066;-61
2021/06/27 09:54:20;;;;;;;6.15;4.67;;;;;;;27.35;58.14;99002.78;1719626;83;21007;-64
2021/06/27 09:56:46;;;;;;;5.35;4.17;;;;;;;27.43;57.65;99007.95;1720317;82;21050;-61
2021/06/27 09:59:21;;;;;;;6.50;4.05;;;;;;;27.40;56.41;99003.76;1673128;86;21679;-64
2021/06/27 10:01:47;;;;;;;6.17;4.15;;;;;;;27.15;56.40;99000.39;1719659;83;21075;-62
2021/06/27 10:04:30;;;;;;;5.97;4.37;;;;;;;26.93;57.24;99008.56;1719757;83;21090;-63
2021/06/27 10:06:59;;;;;;;6.00;4.08;;;;;;;26.80;58.23;99010.13;1672822;85;21152;-61
2021/06/27 10:09:33;;;;;;;8.48;4.53;;;;;;;26.78;58.19;99018.70;1741817;82;21027;-60
2021/06/27 10:12:13;;;;;;;6.45;4.50;;;;;;;26.78;58.04;99020.91;1748713;82;21860;-60
2021/06/27 10:14:51;;;;;;;5.05;3.70;;;;;;;26.71;57.82;99019.50;1749514;82;21035;-62
2021/06/27 10:17:25;;;;;;;7.53;4.20;;;;;;;26.46;57.09;99021.44;1745148;82;21040;-61
2021/06/27 10:19:52;;;;;;;6.35;3.67;;;;;;;26.25;58.19;99031.14;1749607;82;21054;-63
2021/06/27 10:22:20;;;;;;;16.30;3.90;;;;;;;26.12;56.80;99030.05;1749402;82;21078;-62
2021/06/27 10:24:47;;;;;;;4.58;3.12;;;;;;;25.96;57.33;99037.95;1749619;82;21624;-62
2021/06/27 10:27:14;;;;;;;6.25;3.15;;;;;;;25.84;57.57;99043.05;1722594;82;21023;-64
2021/06/27 10:29:43;;;;;;;4.97;3.77;;;;;;;25.72;58.23;99036.61;1719985;83;21027;-62
2021/06/27 10:32:10;;;;;;;6.03;4.47;;;;;;;25.75;58.79;99036.45;1672883;86;21134;-61
2021/06/27 10:34:36;;;;;;;7.97;6.05;;;;;;;25.81;60.11;99043.24;1726089;82;21067;-62
2021/06/27 10:37:13;;;;;;;5.80;4.55;;;;;;;26.00;61.05;99036.58;1748998;82;21578;-63
2021/06/27 10:39:57;;;;;;;6.05;3.90;;;;;;;26.28;59.93;99040.11;1752500;81;21414;-62
2021/06/27 10:42:57;;;;;;;9.38;4.25;;;;;;;26.36;57.95;99050.11;1745586;82;21441;-61
2021/06/27 10:45:41;;;;;;;7.28;4.15;;;;;;;26.38;58.19;99047.13;1723666;83;20992;-63
2021/06/27 10:48:35;;;;;;;6.62;4.22;;;;;;;26.38;57.71;99056.89;1684802;85;21696;-63
2021/06/27 10:51:04;;;;;;;5.75;4.35;;;;;;;26.23;57.88;99044.88;1723223;83;21400;-63
2021/06/27 10:54:13;;;;;;;6.20;4.20;;;;;;;26.32;60.26;99047.90;1729143;82;21094;-61
2021/06/27 10:57:07;;;;;;;6.08;3.75;;;;;;;26.52;59.16;99045.77;1621190;85;21144;-62
2021/06/27 10:59:51;;;;;;;5.83;3.60;;;;;;;26.66;59.35;99049.99;1672425;86;21070;-62
2021/06/27 11:02:43;;;;;;;7.92;3.72;;;;;;;26.89;58.59;99044.06;1713571;82;21066;-63
2021/06/27 11:05:33;;;;;;;6.95;3.58;;;;;;;27.14;57.03;99048.27;1686068;85;21135;-61
2021/06/27 11:08:04;;;;;;;6.53;3.58;;;;;;;27.16;55.96;99055.08;1723195;83;21070;-63
2021/06/27 11:10:34;;;;;;;5.05;3.00;;;;;;;27.08;54.98;99060.45;1654777;85;20988;-62
2021/06/27 11:13:08;;;;;;;6.40;2.85;;;;;;;26.93;54.57;99057.44;1708444;82;21079;-61
2021/06/27 11:15:38;;;;;;;4.78;3.60;;;;;;;26.85;54.16;99050.27;1753565;82;20948;-61
2021/06/27 11:18:07;;;;;;;4.22;3.05;;;;;;;26.85;55.03;99051.66;1751433;82;21502;-62
2021/06/27 11:20:57;;;;;;;6.90;3.33;;;;;;;26.94;55.20;99053.45;1723570;83;21478;-63
2021/06/27 11:23:48;;;;;;;6.25;3.70;;;;;;;26.95;55.33;99053.67;1682265;85;21075;-61
2021/06/27 11:26:43;;;;;;;4.10;2.47;;;;;;;26.93;55.33;99057.44;1715592;83;21470;-62
2021/06/27 11:29:31;;;;;;;5.60;2.77;;;;;;;26.97;54.16;99063.83;1694066;85;21170;-62
2021/06/27 11:32:15;;;;;;;5.03;2.45;;;;;;;27.03;54.24;99063.63;1715570;82;21105;-60
2021/06/27 11:34:55;;;;;;;2.90;2.10;;;;;;;27.04;53.17;99072.81;1660788;85;21083;-63
2021/06/27 11:37:27;;;;;;;4.20;2.42;;;;;;;27.06;52.76;99064.84;1728816;82;21553;-61
2021/06/27 11:39:59;;;;;;;4.08;2.72;;;;;;;27.12;53.60;99069.64;1752505;82;21106;-63
2021/06/27 11:42:31;;;;;;;6.62;2.50;;;;;;;27.18;52.00;99067.23;1743683;82;21577;-59
2021/06/27 11:45:15;;;;;;;4.67;2.80;;;;;;;27.16;52.03;99064.86;1753075;82;21597;-61